createdAt,value
2023-01-05T00:01:40.133Z,96.31
2023-01-05T00:04:07.960Z,95.76
2023-01-05T00:06:37.192Z,97.53
2023-01-05T00:09:05.795Z,92.84
2023-01-05T00:11:50.931Z,97.26
2023-01-05T00:14:39.464Z,95.98
2023-01-05T00:17:25.954Z,95.25
2023-01-05T00:20:16.085Z,95.74
2023-01-05T00:22:47.799Z,94.43
2023-01-05T00:25:17.454Z,95.88
2023-01-05T00:27:48.030Z,95.31
2023-01-05T00:30:19.236Z,92.99
2023-01-05T00:32:47.140Z,92.52
2023-01-05T00:35:16.415Z,92.61
2023-01-05T00:37:45.241Z,91.81
2023-01-05T00:40:15.703Z,92.34
2023-01-05T00:42:43.240Z,91.79
2023-01-05T00:45:12.732Z,93.62
2023-01-05T00:47:42.071Z,93.05
2023-01-05T00:50:11.349Z,93.58
2023-01-05T00:52:38.781Z,95.14
2023-01-05T00:55:07.123Z,94.68
2023-01-05T00:57:34.513Z,97.21
2023-01-05T01:00:02.217Z,93.03
2023-01-05T01:02:29.825Z,92.93
2023-01-05T01:04:58.661Z,94.38
2023-01-05T01:07:26.135Z,90.34
2023-01-05T01:09:53.600Z,89.20
2023-01-05T01:12:21.042Z,92.17
2023-01-05T01:14:49.662Z,90.79
2023-01-05T01:17:17.390Z,93.45
2023-01-05T01:19:46.703Z,92.10
2023-01-05T01:22:15.709Z,93.06
2023-01-05T01:24:43.239Z,92.58
2023-01-05T01:27:10.783Z,93.47
2023-01-05T01:29:38.202Z,95.17
2023-01-05T01:32:05.942Z,93.81
2023-01-05T01:34:33.403Z,93.71
2023-01-05T01:39:29.468Z,92.80
2023-01-05T01:41:56.927Z,91.70
2023-01-05T01:44:49.858Z,94.68
2023-01-05T01:47:24.874Z,95.01
2023-01-05T01:49:52.763Z,95.73
2023-01-05T01:52:22.956Z,95.16
2023-01-05T01:54:52.983Z,92.56
2023-01-05T01:57:21.715Z,92.97
2023-01-05T01:59:49.311Z,91.76
2023-01-05T02:02:16.970Z,91.62
2023-01-05T02:04:45.656Z,92.02
2023-01-05T02:07:16.192Z,92.07
2023-01-05T02:09:44.026Z,91.79
2023-01-05T02:12:27.398Z,91.92
2023-01-05T02:15:06.406Z,91.86
2023-01-05T02:17:42.859Z,94.13
2023-01-05T02:20:31.051Z,92.09
2023-01-05T02:23:28.339Z,93.26
2023-01-05T02:26:29.833Z,93.00
2023-01-05T02:29:18.557Z,94.57
2023-01-05T02:31:56.555Z,92.90
2023-01-05T02:34:32.922Z,92.63
2023-01-05T02:37:08.653Z,94.54
2023-01-05T02:39:44.593Z,93.30
2023-01-05T02:42:16.204Z,92.40
2023-01-05T02:44:43.601Z,91.35
2023-01-05T02:47:38.763Z,90.60
2023-01-05T02:50:12.267Z,92.82
2023-01-05T02:52:47.541Z,92.73
2023-01-05T02:55:20.374Z,90.79
2023-01-05T02:57:53.232Z,90.95
2023-01-05T03:00:25.942Z,90.23
2023-01-05T03:03:00.083Z,91.66
2023-01-05T03:05:33.316Z,91.38
2023-01-05T03:08:07.920Z,92.29
2023-01-05T03:11:01.008Z,89.35
2023-01-05T03:13:43.805Z,89.02
2023-01-05T03:16:15.942Z,88.10
2023-01-05T03:19:03.567Z,88.16
2023-01-05T03:21:45.493Z,89.62
2023-01-05T03:24:31.095Z,88.51
2023-01-05T03:27:16.503Z,90.75
2023-01-05T03:30:01.852Z,90.66
2023-01-05T03:32:50.687Z,90.14
2023-01-05T03:35:32.550Z,88.45
2023-01-05T03:38:04.884Z,88.61
2023-01-05T03:40:35.703Z,90.96
2023-01-05T03:43:05.083Z,89.69
2023-01-05T03:45:39.961Z,90.22
2023-01-05T03:48:07.802Z,90.72
2023-01-05T03:50:38.920Z,88.54
2023-01-05T03:53:07.964Z,88.96
2023-01-05T03:55:35.546Z,89.19
2023-01-05T03:58:03.001Z,88.67
2023-01-05T04:00:30.483Z,91.50
2023-01-05T04:02:58.041Z,91.81
2023-01-05T04:05:25.921Z,91.05
2023-01-05T04:07:54.648Z,90.35
2023-01-05T04:10:22.226Z,92.88
2023-01-05T04:12:49.696Z,92.36
2023-01-05T04:15:17.261Z,90.74
2023-01-05T04:17:44.744Z,92.02
2023-01-05T04:20:12.919Z,90.44
2023-01-05T04:22:40.373Z,92.48
2023-01-05T04:25:09.972Z,90.26
2023-01-05T04:27:37.593Z,91.81
2023-01-05T04:30:06.631Z,95.70
2023-01-05T04:32:34.025Z,97.22
2023-01-05T04:35:07.070Z,97.51
2023-01-05T04:37:38.415Z,97.49
2023-01-05T04:40:07.394Z,95.28
2023-01-05T04:42:36.119Z,96.28
2023-01-05T04:45:03.550Z,94.35
2023-01-05T04:47:30.930Z,94.69
2023-01-05T04:49:58.337Z,94.00
2023-01-05T04:52:25.738Z,95.16
2023-01-05T04:54:53.164Z,97.34
2023-01-05T04:57:20.550Z,97.15
2023-01-05T04:59:49.315Z,97.02
2023-01-05T05:02:16.811Z,92.12
2023-01-05T05:04:44.265Z,94.28
2023-01-05T05:07:11.722Z,95.85
2023-01-05T05:09:39.199Z,95.52
2023-01-05T05:12:06.937Z,96.55
2023-01-05T05:14:34.380Z,97.54
2023-01-05T05:17:03.072Z,98.04
2023-01-05T05:19:30.486Z,97.95
2023-01-05T05:21:58.163Z,95.96
2023-01-05T05:24:25.622Z,97.72
2023-01-05T05:26:53.000Z,99.52
2023-01-05T05:29:20.535Z,99.00
2023-01-05T05:31:48.303Z,97.96
2023-01-05T05:34:17.137Z,99.01
2023-01-05T05:36:44.601Z,98.43
2023-01-05T05:39:13.094Z,97.28
2023-01-05T05:41:40.854Z,99.93
2023-01-05T05:44:08.318Z,99.76
2023-01-05T05:46:35.864Z,98.83
2023-01-05T05:49:04.699Z,98.14
2023-01-05T05:51:33.588Z,96.61
2023-01-05T05:54:01.210Z,96.46
2023-01-05T05:56:28.748Z,96.50
2023-01-05T05:59:01.223Z,97.18
2023-01-05T06:01:29.542Z,100.00
2023-01-05T06:03:57.123Z,100.00
2023-01-05T06:06:24.614Z,100.00
2023-01-05T06:08:53.362Z,100.00
2023-01-05T06:11:20.765Z,100.00
2023-01-05T06:13:49.325Z,100.00
2023-01-05T06:16:17.238Z,100.00
2023-01-05T06:18:44.690Z,100.00
2023-01-05T06:21:12.106Z,100.00
2023-01-05T06:23:39.494Z,100.00
2023-01-05T06:26:08.226Z,100.00
2023-01-05T06:28:35.669Z,100.00
2023-01-05T06:31:03.139Z,100.00
2023-01-05T06:33:34.219Z,99.51
2023-01-05T06:36:01.642Z,99.24
2023-01-05T06:38:29.352Z,99.70
2023-01-05T06:40:58.045Z,99.77
2023-01-05T06:43:26.958Z,100.00
2023-01-05T06:45:54.516Z,100.00
2023-01-05T06:48:21.924Z,100.00
2023-01-05T06:50:49.377Z,99.38
2023-01-05T06:53:16.812Z,99.46
2023-01-05T06:55:45.567Z,99.34
2023-01-05T06:58:13.069Z,98.55
2023-01-05T07:00:41.956Z,98.97
2023-01-05T07:03:13.315Z,98.75
2023-01-05T07:05:41.107Z,97.32
2023-01-05T07:08:09.170Z,97.59
2023-01-05T07:10:36.685Z,97.30
2023-01-05T07:13:04.118Z,96.65
2023-01-05T07:15:31.515Z,95.82
2023-01-05T07:18:00.235Z,95.79
2023-01-05T07:20:28.088Z,94.86
2023-01-05T07:22:55.542Z,96.11
2023-01-05T07:25:22.992Z,95.30
2023-01-05T07:27:52.708Z,94.97
2023-01-05T07:30:20.312Z,94.81
2023-01-05T07:32:47.740Z,94.43
2023-01-05T07:35:16.644Z,94.50
2023-01-05T07:37:44.450Z,94.33
2023-01-05T07:40:12.740Z,93.37
2023-01-05T07:42:40.127Z,93.19
2023-01-05T07:45:08.449Z,92.39
2023-01-05T07:47:35.920Z,93.24
2023-01-05T07:50:03.316Z,92.90
2023-01-05T07:52:33.170Z,93.44
2023-01-05T07:55:00.630Z,92.94
2023-01-05T07:57:28.067Z,91.91
2023-01-05T07:59:55.439Z,91.99
2023-01-05T08:02:22.890Z,91.43
2023-01-05T08:04:50.307Z,90.87
2023-01-05T08:07:17.689Z,90.83
2023-01-05T08:10:04.170Z,90.48
2023-01-05T08:12:31.640Z,90.55
2023-01-05T08:14:59.142Z,90.03
2023-01-05T08:17:26.503Z,90.91
2023-01-05T08:19:53.893Z,91.08
2023-01-05T08:22:21.260Z,91.23
2023-01-05T08:24:49.993Z,91.47
2023-01-05T08:27:17.457Z,91.51
2023-01-05T08:29:44.889Z,91.00
2023-01-05T08:32:12.309Z,90.88
2023-01-05T08:34:39.741Z,91.31
2023-01-05T08:37:07.145Z,91.79
2023-01-05T08:39:35.901Z,91.17
2023-01-05T08:42:04.744Z,90.87
2023-01-05T08:44:32.171Z,90.59
2023-01-05T08:46:59.557Z,90.89
2023-01-05T08:49:26.949Z,91.70
2023-01-05T08:51:54.379Z,90.89
2023-01-05T08:54:21.824Z,91.08
2023-01-05T08:56:50.643Z,90.47
2023-01-05T08:59:19.755Z,91.19
2023-01-05T09:01:47.312Z,91.12
2023-01-05T09:04:14.787Z,91.03
2023-01-05T09:06:42.424Z,90.58
2023-01-05T09:09:10.423Z,90.83
2023-01-05T09:11:38.135Z,90.91
2023-01-05T09:14:05.580Z,89.96
2023-01-05T09:17:06.044Z,98.08
2023-01-05T09:19:23.760Z,83.49
2023-01-05T09:21:52.259Z,85.48
2023-01-05T09:24:19.848Z,86.40
2023-01-05T09:26:47.321Z,85.06
2023-01-05T09:29:15.552Z,83.32
2023-01-05T09:31:45.186Z,82.60
2023-01-05T09:34:12.643Z,85.06
2023-01-05T09:36:40.204Z,86.63
2023-01-05T09:39:07.996Z,86.83
2023-01-05T09:41:39.289Z,86.13
2023-01-05T09:44:14.824Z,85.75
2023-01-05T09:46:47.501Z,84.84
2023-01-05T09:49:17.491Z,84.65
2023-01-05T09:51:45.016Z,84.20
2023-01-05T09:54:17.670Z,83.96
2023-01-05T09:59:37.614Z,82.45
2023-01-05T10:02:17.219Z,81.68
2023-01-05T10:04:45.165Z,81.95
2023-01-05T10:07:20.496Z,82.93
2023-01-05T10:09:51.873Z,82.15
2023-01-05T10:12:43.958Z,82.14
2023-01-05T10:15:17.071Z,81.37
2023-01-05T10:17:46.027Z,79.77
2023-01-05T10:20:19.852Z,79.91
2023-01-05T10:23:04.480Z,80.06
2023-01-05T10:25:39.688Z,79.85
2023-01-05T10:28:23.540Z,78.60
2023-01-05T10:30:58.264Z,78.74
2023-01-05T10:33:52.034Z,78.59
2023-01-05T10:37:07.215Z,78.45
2023-01-05T10:39:48.576Z,77.86
2023-01-05T10:42:33.386Z,78.32
2023-01-05T10:45:04.797Z,78.16
2023-01-05T10:47:38.319Z,78.33
2023-01-05T10:50:26.121Z,78.33
2023-01-05T10:52:54.343Z,77.66
2023-01-05T10:55:23.818Z,78.09
2023-01-05T10:57:51.355Z,78.60
2023-01-05T11:00:20.775Z,78.11
2023-01-05T11:02:51.521Z,77.60
2023-01-05T11:05:34.695Z,78.78
2023-01-05T11:08:04.658Z,78.10
2023-01-05T11:10:35.288Z,78.07
2023-01-05T11:13:06.496Z,78.62
2023-01-05T11:15:40.866Z,78.82
2023-01-05T11:18:20.120Z,78.83
2023-01-05T11:21:07.846Z,78.68
2023-01-05T11:23:38.554Z,79.04
2023-01-05T11:26:21.926Z,79.19
2023-01-05T11:28:59.612Z,79.57
2023-01-05T11:31:28.990Z,79.32
2023-01-05T11:33:58.679Z,78.99
2023-01-05T11:36:27.833Z,79.76
2023-01-05T11:38:57.719Z,78.91
2023-01-05T11:41:25.818Z,79.11
2023-01-05T11:43:55.195Z,79.13
2023-01-05T11:46:23.787Z,78.29
2023-01-05T11:48:54.303Z,77.97
2023-01-05T11:51:37.221Z,79.56
2023-01-05T11:54:05.359Z,80.15
2023-01-05T11:56:32.762Z,79.67
2023-01-05T11:59:00.197Z,79.23
2023-01-05T12:01:57.038Z,79.65
2023-01-05T12:04:52.783Z,80.18
2023-01-05T12:07:33.013Z,80.51
2023-01-05T12:10:14.037Z,80.21
2023-01-05T12:12:53.753Z,79.64
2023-01-05T12:15:40.106Z,79.17
2023-01-05T12:18:21.534Z,78.93
2023-01-05T12:21:07.165Z,78.62
2023-01-05T12:24:13.980Z,78.66
2023-01-05T12:26:50.242Z,79.20
2023-01-05T12:35:58.344Z,78.82
2023-01-05T12:38:46.476Z,79.17
2023-01-05T12:41:32.234Z,79.03
2023-01-05T12:44:26.598Z,79.25
2023-01-05T12:47:08.749Z,78.85
2023-01-05T12:49:41.838Z,79.17
2023-01-05T12:52:14.573Z,78.95
2023-01-05T12:54:46.832Z,79.21
2023-01-05T12:57:22.427Z,78.90
2023-01-05T12:59:56.929Z,78.71
2023-01-05T13:02:33.145Z,79.50
2023-01-05T13:05:05.714Z,78.63
2023-01-05T13:07:39.416Z,78.09
2023-01-05T13:10:16.024Z,78.14
2023-01-05T13:12:44.756Z,78.08
2023-01-05T13:15:19.441Z,78.54
2023-01-05T13:17:49.421Z,78.08
2023-01-05T13:20:27.076Z,77.37
2023-01-05T13:23:00.619Z,77.79
2023-01-05T13:25:32.138Z,78.00
2023-01-05T13:28:01.008Z,78.59
2023-01-05T13:30:32.013Z,78.90
2023-01-05T13:33:25.101Z,78.50
2023-01-05T13:36:04.189Z,78.53
2023-01-05T13:39:10.960Z,78.49
2023-01-05T13:41:59.042Z,79.01
2023-01-05T13:44:43.264Z,79.35
2023-01-05T13:47:27.487Z,79.07
2023-01-05T13:50:26.005Z,79.80
2023-01-05T13:53:05.657Z,78.96
2023-01-05T13:55:36.410Z,79.86
2023-01-05T13:58:04.082Z,79.91
2023-01-05T14:00:36.785Z,80.19
2023-01-05T14:03:08.215Z,80.71
2023-01-05T14:05:48.438Z,80.04
2023-01-05T14:08:25.828Z,80.75
2023-01-05T14:11:09.799Z,80.45
2023-01-05T14:13:43.204Z,80.79
2023-01-05T14:16:48.163Z,81.05
2023-01-05T14:19:22.558Z,81.47
2023-01-05T14:22:21.757Z,81.11
2023-01-05T14:24:49.315Z,81.40
2023-01-05T14:27:18.001Z,81.69
2023-01-05T14:30:20.535Z,81.60
2023-01-05T14:32:48.426Z,82.23
2023-01-05T14:35:30.298Z,82.51
2023-01-05T14:38:00.819Z,81.52
2023-01-05T14:40:38.367Z,81.59
2023-01-05T14:43:08.860Z,81.20
2023-01-05T14:45:40.146Z,82.31
2023-01-05T14:48:26.434Z,82.47
2023-01-05T14:51:24.585Z,81.70
2023-01-05T14:53:53.736Z,82.22
2023-01-05T14:56:25.531Z,82.33
2023-01-05T14:59:07.474Z,82.07
2023-01-05T15:04:18.524Z,83.15
2023-01-05T15:07:24.500Z,83.18
2023-01-05T15:10:11.414Z,82.56
2023-01-05T15:12:58.091Z,83.97
2023-01-05T15:15:36.090Z,83.56
2023-01-05T15:18:33.340Z,83.30
2023-01-05T15:21:24.559Z,82.51
2023-01-05T15:24:18.775Z,82.45
2023-01-05T15:27:04.107Z,82.90
2023-01-05T15:29:56.870Z,81.56
2023-01-05T15:32:26.793Z,82.12
2023-01-05T15:34:58.895Z,81.22
2023-01-05T15:37:31.477Z,82.86
2023-01-05T15:40:03.875Z,81.10
2023-01-05T15:42:39.751Z,81.29
2023-01-05T15:45:10.889Z,81.57
2023-01-05T15:47:40.515Z,81.29
2023-01-05T15:50:17.006Z,81.67
2023-01-05T15:52:53.277Z,80.94
2023-01-05T15:55:22.971Z,81.12
2023-01-05T15:57:56.143Z,80.08
2023-01-05T16:00:26.802Z,81.87
2023-01-05T16:02:54.418Z,79.56
2023-01-05T16:05:23.800Z,80.96
2023-01-05T16:07:57.575Z,81.90
2023-01-05T16:10:30.043Z,81.90
2023-01-05T16:13:03.500Z,81.42
2023-01-05T16:15:34.879Z,79.47
2023-01-05T16:18:03.224Z,81.92
2023-01-05T16:20:31.050Z,82.07
2023-01-05T16:23:08.311Z,81.12
2023-01-05T16:25:42.459Z,79.46
2023-01-05T16:28:17.354Z,81.84
2023-01-05T16:30:46.315Z,80.80
2023-01-05T16:33:28.051Z,82.66
2023-01-05T16:36:08.450Z,83.67
2023-01-05T16:38:36.006Z,81.79
2023-01-05T16:41:20.760Z,82.42
2023-01-05T16:43:54.885Z,82.05
2023-01-05T16:46:31.558Z,80.73
2023-01-05T16:49:02.585Z,82.38
2023-01-05T16:51:42.405Z,83.22
2023-01-05T16:54:18.966Z,82.79
2023-01-05T16:56:58.536Z,82.14
2023-01-05T16:59:45.758Z,83.42
2023-01-05T17:02:40.566Z,82.15
2023-01-05T17:05:08.333Z,82.38
2023-01-05T17:07:38.720Z,82.87
2023-01-05T17:10:07.555Z,82.09
2023-01-05T17:12:36.366Z,82.78
2023-01-05T17:15:07.195Z,82.26
2023-01-05T17:17:34.775Z,82.23
2023-01-05T17:20:02.192Z,82.40
2023-01-05T17:22:29.731Z,82.84
2023-01-05T17:24:57.151Z,83.67
2023-01-05T17:27:24.550Z,82.78
2023-01-05T17:29:53.426Z,82.98
2023-01-05T17:32:20.884Z,83.78
2023-01-05T17:34:48.419Z,83.45
2023-01-05T17:37:17.526Z,83.88
2023-01-05T17:39:44.939Z,82.24
2023-01-05T17:44:58.930Z,82.82
2023-01-05T17:47:26.331Z,82.34
2023-01-05T17:49:53.804Z,83.40
2023-01-05T17:52:21.247Z,80.08
2023-01-05T17:54:48.665Z,80.49
2023-01-05T17:57:16.064Z,82.68
2023-01-05T17:59:44.644Z,81.86
2023-01-05T18:02:13.407Z,82.27
2023-01-05T18:04:41.080Z,81.17
2023-01-05T18:09:40.808Z,81.17
2023-01-05T18:12:08.343Z,80.12
2023-01-05T18:14:35.787Z,80.89
2023-01-05T18:17:03.219Z,80.91
2023-01-05T18:19:33.489Z,80.65
2023-01-05T18:22:01.155Z,80.52
2023-01-05T18:24:28.832Z,81.63
2023-01-05T18:26:56.276Z,81.16
2023-01-05T18:29:23.683Z,81.96
2023-01-05T18:31:51.147Z,82.58
2023-01-05T18:34:18.586Z,82.28
2023-01-05T18:36:52.448Z,82.12
2023-01-05T18:39:26.634Z,82.67
2023-01-05T18:41:55.460Z,81.43
2023-01-05T18:44:23.510Z,81.16
2023-01-05T18:46:50.942Z,80.28
2023-01-05T18:49:18.387Z,82.04
2023-01-05T18:51:47.209Z,81.45
2023-01-05T18:54:14.643Z,82.53
2023-01-05T18:56:42.055Z,81.79
2023-01-05T18:59:11.012Z,83.24
2023-01-05T19:01:40.144Z,81.90
2023-01-05T19:04:07.650Z,82.57
2023-01-05T19:06:35.166Z,81.85
2023-01-05T19:09:05.352Z,81.73
2023-01-05T19:11:33.286Z,82.45
2023-01-05T19:14:02.587Z,81.91
2023-01-05T19:16:31.988Z,81.30
2023-01-05T19:19:03.316Z,80.00
2023-01-05T19:21:32.980Z,82.36
2023-01-05T19:24:04.394Z,81.38
2023-01-05T19:26:33.616Z,81.72
2023-01-05T19:29:02.336Z,81.82
2023-01-05T19:31:30.643Z,82.35
2023-01-05T19:33:59.739Z,79.79
2023-01-05T19:36:32.252Z,80.32
2023-01-05T19:39:01.741Z,81.32
2023-01-05T19:41:31.222Z,83.16
2023-01-05T19:43:59.031Z,81.92
2023-01-05T19:46:28.350Z,80.61
2023-01-05T19:48:56.431Z,80.34
2023-01-05T19:51:26.956Z,79.74
2023-01-05T19:53:56.498Z,80.37
2023-01-05T19:56:25.931Z,80.97
2023-01-05T19:58:56.056Z,80.77
2023-01-05T20:01:25.133Z,78.94
2023-01-05T20:03:52.874Z,79.08
2023-01-05T20:06:23.292Z,81.20
2023-01-05T20:08:53.323Z,78.00
2023-01-05T20:11:35.668Z,77.75
2023-01-05T20:14:05.382Z,79.12
2023-01-05T20:16:32.890Z,78.40
2023-01-05T20:19:00.723Z,81.35
2023-01-05T20:21:28.481Z,80.45
2023-01-05T20:23:55.937Z,80.81
2023-01-05T20:26:24.635Z,80.30
2023-01-05T20:28:52.389Z,78.75
2023-01-05T20:31:24.243Z,78.56
2023-01-05T20:33:52.353Z,78.33
2023-01-05T20:36:21.004Z,78.18
2023-01-05T20:38:48.697Z,76.89
2023-01-05T20:41:18.271Z,76.43
2023-01-05T20:43:47.080Z,75.25
2023-01-05T20:46:16.600Z,74.83
2023-01-05T20:48:45.710Z,74.67
2023-01-05T20:51:14.875Z,73.81
2023-01-05T20:53:43.238Z,75.03
2023-01-05T20:56:13.511Z,74.47
2023-01-05T20:58:41.786Z,73.97
2023-01-05T21:01:11.648Z,74.56
2023-01-05T21:03:40.014Z,73.53
2023-01-05T21:06:11.487Z,73.66
2023-01-05T21:08:39.845Z,73.17
2023-01-05T21:11:15.759Z,72.36
2023-01-05T21:13:44.377Z,72.66
2023-01-05T21:16:17.023Z,72.97
2023-01-05T21:18:45.411Z,83.01
2023-01-05T21:21:15.861Z,90.08
2023-01-05T21:23:44.274Z,84.15
2023-01-05T21:26:14.705Z,83.76
2023-01-05T21:28:44.480Z,81.15
2023-01-05T21:31:18.702Z,82.83
2023-01-05T21:33:46.807Z,79.17
2023-01-05T21:36:20.232Z,74.92
2023-01-05T21:39:01.186Z,73.39
2023-01-05T21:41:50.524Z,78.10
2023-01-05T21:44:19.813Z,80.07
2023-01-05T21:46:48.263Z,81.12
2023-01-05T21:49:16.801Z,82.89
2023-01-05T21:52:05.991Z,77.98
2023-01-05T21:54:50.772Z,81.65
2023-01-05T21:57:18.682Z,78.07
2023-01-05T21:59:47.629Z,72.29
2023-01-05T22:02:15.833Z,72.89
2023-01-05T22:04:43.805Z,69.07
2023-01-05T22:07:12.729Z,72.48
2023-01-05T22:09:40.183Z,67.94
2023-01-05T22:12:09.069Z,69.00
2023-01-05T22:14:36.715Z,68.86
2023-01-05T22:17:05.221Z,69.30
2023-01-05T22:19:32.729Z,70.92
2023-01-05T22:22:00.160Z,69.29
2023-01-05T22:24:28.896Z,70.10
2023-01-05T22:26:56.353Z,71.53
2023-01-05T22:29:24.200Z,71.28
2023-01-05T22:31:52.038Z,71.01
2023-01-05T22:34:21.123Z,69.77
2023-01-05T22:36:49.050Z,73.01
2023-01-05T22:39:17.083Z,71.89
2023-01-05T22:41:46.522Z,73.33
2023-01-05T22:44:13.974Z,71.39
2023-01-05T22:46:41.638Z,72.09
2023-01-05T22:49:13.283Z,72.57
2023-01-05T22:51:41.756Z,72.28
2023-01-05T22:54:09.269Z,72.93
2023-01-05T22:56:37.139Z,73.80
2023-01-05T22:59:06.203Z,73.54
2023-01-05T23:01:36.150Z,74.41
2023-01-05T23:04:06.289Z,73.30
2023-01-05T23:06:34.461Z,73.63
2023-01-05T23:09:02.921Z,74.20
2023-01-05T23:11:32.571Z,75.81
2023-01-05T23:14:01.822Z,75.31
2023-01-05T23:16:30.904Z,74.68
2023-01-05T23:18:58.501Z,74.45
2023-01-05T23:21:27.403Z,74.27
2023-01-05T23:23:56.375Z,75.97
2023-01-05T23:26:25.010Z,75.37
2023-01-05T23:28:52.774Z,75.45
2023-01-05T23:31:20.663Z,74.62
2023-01-05T23:33:50.146Z,76.23
2023-01-05T23:36:19.013Z,75.86
2023-01-05T23:38:47.244Z,76.11
2023-01-05T23:41:16.247Z,75.59
2023-01-05T23:43:45.442Z,75.98
2023-01-05T23:46:16.330Z,74.48
2023-01-05T23:48:44.672Z,75.54
2023-01-05T23:51:16.324Z,76.26
2023-01-05T23:53:46.717Z,75.79
2023-01-05T23:56:16.001Z,75.91
2023-01-05T23:58:43.885Z,75.68
